Time;durP1;ratioP1;P1;durP2;ratioP2;P2;SDS_P1;SDS_P2;PMS_P1;PMS_P2;Temp;Humidity;BMP_temperature;BMP_pressure;BME280_temperature;BME280_humidity;BME280_pressure;Samples;Min_cycle;Max_cycle;Signal;HPM_P1;HPM_P2
2024/03/12 00:00:22;;;;;;;3.55;2.05;;;12.30;87.40;;;;;;4995864;28;20038;-77
2024/03/12 00:02:50;;;;;;;3.03;1.83;;;12.30;87.50;;;;;;5013513;28;20026;-78
2024/03/12 00:05:18;;;;;;;3.45;1.90;;;12.30;87.50;;;;;;5013463;28;20029;-77
2024/03/12 00:07:44;;;;;;;4.05;2.30;;;12.30;87.50;;;;;;5013595;28;20018;-78
2024/03/12 00:10:19;;;;;;;4.40;2.17;;;12.30;87.50;;;;;;4995932;28;20069;-77
2024/03/12 00:12:48;;;;;;;3.50;2.00;;;12.30;87.50;;;;;;4995664;28;20149;-78
2024/03/12 00:15:19;;;;;;;3.90;2.17;;;12.30;87.50;;;;;;4995545;28;20030;-77
2024/03/12 00:17:46;;;;;;;3.53;2.03;;;12.30;87.50;;;;;;5013569;28;20022;-78
2024/03/12 00:20:17;;;;;;;3.90;2.28;;;12.30;87.50;;;;;;5012934;28;20034;-78
2024/03/12 00:22:47;;;;;;;3.80;2.08;;;12.30;87.50;;;;;;5013214;28;20022;-78
2024/03/12 00:25:16;;;;;;;3.75;2.10;;;12.30;87.50;;;;;;4994366;28;20040;-78
2024/03/12 00:27:42;;;;;;;3.70;2.17;;;12.20;87.50;;;;;;4995311;28;20057;-77
2024/03/12 00:30:13;;;;;;;3.45;2.08;;;12.30;87.50;;;;;;5012818;28;20030;-77
2024/03/12 00:32:38;;;;;;;3.60;2.10;;;12.30;87.60;;;;;;5012996;28;20018;-77
2024/03/12 00:35:05;;;;;;;4.15;2.33;;;12.30;87.60;;;;;;4995290;28;20029;-77
2024/03/12 00:37:33;;;;;;;4.03;2.30;;;12.30;87.50;;;;;;5012954;28;20036;-77
2024/03/12 00:39:59;;;;;;;3.67;2.20;;;12.30;87.60;;;;;;4994940;28;20084;-78
2024/03/12 00:42:26;;;;;;;3.47;2.00;;;12.30;87.60;;;;;;5012445;28;20434;-77
2024/03/12 00:44:52;;;;;;;3.45;1.90;;;12.30;87.60;;;;;;5013037;28;20149;-78
2024/03/12 00:47:17;;;;;;;3.65;2.15;;;12.30;87.60;;;;;;4994629;28;20069;-77
2024/03/12 00:49:46;;;;;;;3.50;2.10;;;12.30;87.60;;;;;;5012625;28;20018;-77
2024/03/12 00:52:11;;;;;;;3.40;1.98;;;12.30;87.60;;;;;;4978842;28;20067;-78
2024/03/12 00:54:37;;;;;;;3.78;2.08;;;12.30;87.60;;;;;;5012556;28;20072;-77
2024/03/12 00:57:05;;;;;;;3.80;2.08;;;12.30;87.60;;;;;;4994895;28;20478;-78
2024/03/12 00:59:31;;;;;;;3.50;1.90;;;12.30;87.60;;;;;;4994776;28;20053;-77
2024/03/12 01:01:57;;;;;;;3.70;2.10;;;12.30;87.60;;;;;;5012021;28;20519;-77
2024/03/12 01:04:23;;;;;;;3.40;2.08;;;12.30;87.60;;;;;;5012168;28;20022;-77
2024/03/12 01:06:49;;;;;;;3.33;1.95;;;12.30;87.60;;;;;;4994655;28;20037;-77
2024/03/12 01:09:17;;;;;;;4.15;2.08;;;12.30;87.60;;;;;;5011893;28;20026;-77
2024/03/12 01:11:43;;;;;;;4.03;2.20;;;12.20;87.60;;;;;;5012486;28;20026;-78
2024/03/12 01:14:08;;;;;;;3.53;2.08;;;12.30;87.60;;;;;;5012231;28;20033;-77
2024/03/12 01:16:34;;;;;;;3.92;2.10;;;12.30;87.60;;;;;;5011909;28;20025;-78
2024/03/12 01:18:59;;;;;;;4.30;2.22;;;12.30;87.60;;;;;;5012340;28;20141;-78
2024/03/12 01:21:25;;;;;;;3.60;2.10;;;12.30;87.60;;;;;;5012430;28;20029;-77
2024/03/12 01:23:50;;;;;;;4.15;2.17;;;12.30;87.60;;;;;;5012116;28;20040;-77
2024/03/12 01:26:16;;;;;;;3.92;2.00;;;12.30;87.60;;;;;;4994050;28;20495;-77
2024/03/12 01:28:41;;;;;;;3.80;2.10;;;12.30;87.60;;;;;;4994353;28;20032;-78
2024/03/12 01:31:07;;;;;;;4.03;2.28;;;12.30;87.60;;;;;;4994455;28;20228;-77
2024/03/12 01:33:34;;;;;;;3.60;1.90;;;12.30;87.60;;;;;;4993966;28;20034;-77
2024/03/12 01:36:18;;;;;;;4.13;2.10;;;12.30;87.60;;;;;;5011594;28;20076;-77
2024/03/12 01:38:48;;;;;;;3.83;2.17;;;12.30;87.70;;;;;;5011767;28;20030;-77
2024/03/12 01:41:17;;;;;;;3.78;2.20;;;12.30;87.70;;;;;;5011656;28;20026;-77
2024/03/12 01:43:43;;;;;;;3.30;2.20;;;12.30;87.60;;;;;;4993981;28;20108;-77
2024/03/12 01:46:10;;;;;;;3.80;2.22;;;12.30;87.60;;;;;;4993602;28;20571;-78
2024/03/12 01:48:36;;;;;;;3.42;2.00;;;12.30;88.20;;;;;;4993858;28;20038;-77
2024/03/12 01:51:04;;;;;;;3.75;2.20;;;12.30;87.70;;;;;;4994065;28;20026;-78
2024/03/12 01:53:30;;;;;;;4.05;2.10;;;12.20;87.70;;;;;;5011530;28;20018;-77
2024/03/12 01:56:00;;;;;;;3.78;2.13;;;12.30;87.70;;;;;;4994036;28;20032;-78
2024/03/12 01:58:25;;;;;;;4.03;2.20;;;12.30;87.70;;;;;;5011394;28;20028;-78
2024/03/12 02:00:51;;;;;;;4.30;2.13;;;12.30;87.70;;;;;;5011349;28;20025;-78
2024/03/12 02:03:18;;;;;;;3.97;2.30;;;12.30;87.70;;;;;;4993432;28;20398;-77
2024/03/12 02:05:46;;;;;;;4.30;2.35;;;12.30;87.70;;;;;;5011494;28;20030;-78
2024/03/12 02:08:13;;;;;;;4.18;2.30;;;12.30;87.70;;;;;;4993542;28;20121;-77
2024/03/12 02:10:38;;;;;;;4.10;2.20;;;12.30;87.70;;;;;;4993591;28;20022;-77
2024/03/12 02:13:04;;;;;;;3.75;2.20;;;12.20;87.60;;;;;;4993243;28;20113;-77
2024/03/12 02:15:30;;;;;;;3.17;1.95;;;12.30;87.70;;;;;;4993430;28;20121;-77
2024/03/12 02:17:56;;;;;;;3.47;2.10;;;12.20;87.70;;;;;;5011523;28;20117;-77
2024/03/12 02:20:21;;;;;;;3.33;1.90;;;12.20;87.70;;;;;;4993647;28;20037;-78
2024/03/12 02:22:47;;;;;;;4.18;2.30;;;12.20;87.60;;;;;;4993394;28;20380;-77
2024/03/12 02:25:13;;;;;;;3.40;1.92;;;12.30;87.70;;;;;;4993734;28;20087;-77
2024/03/12 02:27:39;;;;;;;3.58;2.00;;;12.30;87.70;;;;;;5011170;28;20510;-77
2024/03/12 02:30:08;;;;;;;3.63;2.10;;;12.20;87.70;;;;;;4993216;28;20037;-77
2024/03/12 02:32:33;;;;;;;4.18;2.25;;;12.30;87.70;;;;;;5010765;28;20022;-79
2024/03/12 02:34:59;;;;;;;3.38;2.08;;;12.30;87.70;;;;;;4993362;28;20022;-77
2024/03/12 02:37:25;;;;;;;3.60;2.20;;;12.30;87.70;;;;;;5011152;28;20109;-77
2024/03/12 02:39:51;;;;;;;3.65;2.17;;;12.30;87.70;;;;;;4993267;28;20037;-78
2024/03/12 02:42:16;;;;;;;3.53;2.10;;;12.30;87.80;;;;;;5011194;28;20030;-78
2024/03/12 02:44:42;;;;;;;3.90;2.20;;;12.20;87.70;;;;;;5010719;28;20045;-77
2024/03/12 02:47:07;;;;;;;4.55;2.22;;;12.30;87.70;;;;;;5010712;28;20125;-78
2024/03/12 02:49:36;;;;;;;2.97;2.05;;;12.30;87.80;;;;;;5015331;28;20034;-77
2024/03/12 02:52:02;;;;;;;4.15;2.20;;;12.20;87.70;;;;;;5014616;28;20093;-78
2024/03/12 02:54:28;;;;;;;4.57;2.45;;;12.30;87.80;;;;;;5015028;28;20467;-78
2024/03/12 02:56:53;;;;;;;4.10;2.30;;;12.30;87.80;;;;;;5014553;28;20037;-77
2024/03/12 02:59:19;;;;;;;4.10;2.35;;;12.30;87.80;;;;;;4996984;28;20026;-77
2024/03/12 03:01:45;;;;;;;3.70;2.20;;;12.30;88.30;;;;;;4996812;28;20026;-77
2024/03/12 03:04:10;;;;;;;3.47;2.00;;;12.20;87.70;;;;;;5014465;28;20076;-77
2024/03/12 03:06:36;;;;;;;4.50;2.13;;;12.20;87.70;;;;;;4996802;28;20030;-78
2024/03/12 03:09:05;;;;;;;4.32;2.40;;;12.20;87.70;;;;;;5015125;28;20030;-78
2024/03/12 03:11:31;;;;;;;3.83;2.13;;;12.30;87.70;;;;;;4997050;28;20029;-77
2024/03/12 03:13:56;;;;;;;3.30;2.10;;;12.30;87.80;;;;;;5014494;28;20072;-77
2024/03/12 03:16:23;;;;;;;4.20;2.30;;;12.30;87.80;;;;;;4996815;28;20394;-79
2024/03/12 03:18:49;;;;;;;3.78;2.10;;;12.30;87.80;;;;;;5014716;28;20038;-78
2024/03/12 03:21:14;;;;;;;3.63;2.00;;;12.20;87.80;;;;;;5014339;28;20116;-77
2024/03/12 03:23:42;;;;;;;4.03;2.20;;;12.30;87.80;;;;;;4996475;28;20032;-77
2024/03/12 03:26:08;;;;;;;3.58;2.13;;;12.30;87.80;;;;;;5014344;28;20022;-77
2024/03/12 03:28:34;;;;;;;4.25;2.35;;;12.30;87.80;;;;;;5014490;28;20029;-77
2024/03/12 03:30:59;;;;;;;4.45;2.42;;;12.30;87.80;;;;;;5014411;28;20505;-77
2024/03/12 03:33:28;;;;;;;4.18;2.30;;;12.30;87.80;;;;;;5013719;28;20123;-77
2024/03/12 03:35:54;;;;;;;4.28;2.40;;;12.20;87.80;;;;;;5014371;28;20036;-78
2024/03/12 03:38:20;;;;;;;4.15;2.33;;;12.30;87.80;;;;;;4993285;28;20585;-78
2024/03/12 03:40:46;;;;;;;3.78;2.30;;;12.30;87.90;;;;;;4995672;28;20562;-76
2024/03/12 03:43:11;;;;;;;4.38;2.60;;;12.20;87.80;;;;;;4995858;28;20041;-77
2024/03/12 03:45:37;;;;;;;4.13;2.60;;;12.20;87.80;;;;;;4995843;28;20030;-77
2024/03/12 03:48:04;;;;;;;4.35;2.40;;;12.30;88.20;;;;;;5013794;28;20020;-77
2024/03/12 03:50:29;;;;;;;3.75;2.22;;;12.20;87.80;;;;;;5013417;28;20026;-77
2024/03/12 03:52:55;;;;;;;4.20;2.47;;;12.30;87.80;;;;;;5013434;28;20022;-78
2024/03/12 03:55:23;;;;;;;3.88;2.15;;;12.20;87.80;;;;;;5013468;28;20057;-77
2024/03/12 03:57:51;;;;;;;3.80;2.28;;;12.20;87.80;;;;;;5013448;28;20414;-78
2024/03/12 04:00:23;;;;;;;4.53;2.30;;;12.20;87.80;;;;;;4995920;28;20181;-78
2024/03/12 04:02:49;;;;;;;4.13;2.30;;;12.30;87.90;;;;;;5013354;28;20036;-78
2024/03/12 04:05:15;;;;;;;4.20;2.40;;;12.30;87.90;;;;;;5013342;28;20034;-77
2024/03/12 04:07:43;;;;;;;4.57;2.65;;;12.30;87.90;;;;;;5013696;28;20322;-77
2024/03/12 04:10:10;;;;;;;4.43;2.33;;;12.30;87.90;;;;;;4996176;28;20403;-78
2024/03/12 04:12:45;;;;;;;4.43;2.40;;;12.20;87.90;;;;;;4995337;28;20026;-78
2024/03/12 04:15:12;;;;;;;3.92;2.40;;;12.30;87.90;;;;;;4995734;28;20036;-77
2024/03/12 04:17:38;;;;;;;3.72;2.30;;;12.20;87.80;;;;;;4995754;28;20030;-77
2024/03/12 04:20:10;;;;;;;4.28;2.50;;;12.30;87.90;;;;;;4991720;28;20029;-82
2024/03/12 04:22:39;;;;;;;4.57;2.45;;;12.20;87.80;;;;;;5009834;28;20395;-79
2024/03/12 04:25:08;;;;;;;4.38;2.47;;;12.30;87.90;;;;;;4992659;28;20026;-78
2024/03/12 04:27:37;;;;;;;4.20;2.65;;;12.30;87.90;;;;;;5009960;28;20025;-78
2024/03/12 04:30:09;;;;;;;5.70;3.10;;;12.30;87.90;;;;;;5009889;28;20030;-78
2024/03/12 04:32:38;;;;;;;4.63;2.50;;;12.20;87.90;;;;;;5009744;28;20045;-78
2024/03/12 04:35:05;;;;;;;4.80;2.80;;;12.20;87.80;;;;;;5009637;28;20510;-77
2024/03/12 04:37:34;;;;;;;5.00;3.10;;;12.30;87.90;;;;;;4991412;28;20033;-78
2024/03/12 04:40:00;;;;;;;4.97;2.60;;;12.30;87.90;;;;;;4991550;28;20274;-78
2024/03/12 04:42:29;;;;;;;5.43;3.10;;;12.20;87.80;;;;;;5007680;28;20026;-78
2024/03/12 04:44:56;;;;;;;5.38;2.90;;;12.30;87.90;;;;;;5009887;28;20026;-79
2024/03/12 04:47:21;;;;;;;4.78;2.80;;;12.30;87.90;;;;;;4999707;28;20281;-78
2024/03/12 04:49:47;;;;;;;5.13;3.22;;;12.20;87.90;;;;;;4990535;28;20045;-78
2024/03/12 04:52:13;;;;;;;5.63;2.97;;;12.30;87.90;;;;;;5007526;28;20445;-78
2024/03/12 04:54:38;;;;;;;6.07;3.50;;;12.20;87.90;;;;;;5006329;28;20391;-77
2024/03/12 04:57:04;;;;;;;5.97;3.60;;;12.20;87.80;;;;;;4987440;28;20029;-78
2024/03/12 04:59:29;;;;;;;5.70;3.25;;;12.20;87.80;;;;;;4987893;28;20412;-78
2024/03/12 05:01:55;;;;;;;5.72;3.55;;;12.30;87.90;;;;;;4987411;28;20029;-77
2024/03/12 05:04:22;;;;;;;5.40;3.00;;;12.20;87.80;;;;;;5005122;28;20044;-77
2024/03/12 05:06:47;;;;;;;5.70;3.45;;;12.30;87.90;;;;;;5006356;28;20034;-77
2024/03/12 05:09:17;;;;;;;5.72;3.15;;;12.30;87.90;;;;;;5009496;28;20029;-78
2024/03/12 05:11:44;;;;;;;6.05;3.47;;;12.20;87.90;;;;;;4989924;28;20518;-78
2024/03/12 05:14:09;;;;;;;6.88;4.07;;;12.20;87.90;;;;;;4991292;28;20041;-77
2024/03/12 05:16:35;;;;;;;6.55;3.90;;;12.20;87.90;;;;;;5008696;28;20030;-78
2024/03/12 05:19:00;;;;;;;6.80;3.72;;;12.30;87.90;;;;;;4991385;28;20030;-77
2024/03/12 05:21:28;;;;;;;6.15;3.55;;;12.20;87.90;;;;;;4989955;28;20034;-78
2024/03/12 05:23:55;;;;;;;6.07;3.67;;;12.20;87.90;;;;;;5006991;28;20083;-78
2024/03/12 05:26:28;;;;;;;5.80;3.42;;;12.20;87.90;;;;;;4989220;28;20026;-78
2024/03/12 05:28:54;;;;;;;7.03;4.07;;;12.30;88.00;;;;;;4989643;28;20106;-81
2024/03/12 05:31:34;;;;;;;6.45;3.90;;;12.20;87.90;;;;;;4989066;28;20126;-80
2024/03/12 05:34:01;;;;;;;6.80;3.93;;;12.20;87.90;;;;;;4989077;28;20088;-78
2024/03/12 05:36:30;;;;;;;6.68;4.10;;;12.20;87.90;;;;;;4989202;28;20029;-78
2024/03/12 05:39:04;;;;;;;6.93;4.13;;;12.20;87.90;;;;;;4987773;28;20036;-78
2024/03/12 05:41:41;;;;;;;5.95;3.90;;;12.20;87.90;;;;;;4988839;28;20639;-78
2024/03/12 05:49:39;;;;;;;7.00;4.20;;;12.30;88.00;;;;;;5007222;28;20057;-78
2024/03/12 05:52:05;;;;;;;7.00;4.32;;;12.30;88.00;;;;;;4988213;28;20022;-77
2024/03/12 05:54:32;;;;;;;7.07;4.15;;;12.20;88.00;;;;;;5006380;28;20033;-78
2024/03/12 05:57:00;;;;;;;6.15;3.42;;;12.20;88.00;;;;;;4988734;28;20032;-81
2024/03/12 05:59:26;;;;;;;6.93;4.15;;;12.30;88.00;;;;;;4989017;28;20403;-78
2024/03/12 06:01:52;;;;;;;6.88;4.15;;;12.30;88.10;;;;;;4988466;28;20528;-78
2024/03/12 06:04:17;;;;;;;7.03;4.20;;;12.20;88.00;;;;;;4988359;28;20062;-80
2024/03/12 06:06:43;;;;;;;7.20;4.30;;;12.30;88.10;;;;;;4989024;28;20061;-79
2024/03/12 06:09:09;;;;;;;7.30;4.40;;;12.20;88.00;;;;;;4990640;28;20538;-80
2024/03/12 06:11:35;;;;;;;8.10;4.72;;;12.20;88.10;;;;;;4988400;28;20514;-79
2024/03/12 06:14:00;;;;;;;7.60;4.90;;;12.20;88.10;;;;;;4988803;28;20090;-78
2024/03/12 06:16:25;;;;;;;7.13;4.20;;;12.20;88.10;;;;;;4988600;28;20070;-78
2024/03/12 06:18:51;;;;;;;6.80;4.07;;;12.20;88.10;;;;;;5007040;28;20507;-80
2024/03/12 06:21:16;;;;;;;6.88;4.18;;;12.30;88.10;;;;;;5006934;28;20105;-78
2024/03/12 06:23:42;;;;;;;8.02;5.03;;;12.20;88.00;;;;;;4987593;28;20976;-78
2024/03/12 06:26:08;;;;;;;7.35;4.30;;;12.20;88.10;;;;;;4988000;28;20045;-78
2024/03/12 06:28:34;;;;;;;7.28;4.78;;;12.20;88.00;;;;;;4988529;28;20462;-77
2024/03/12 06:30:59;;;;;;;7.25;4.28;;;12.20;88.10;;;;;;4988906;28;20030;-79
2024/03/12 06:33:26;;;;;;;6.63;4.22;;;12.20;88.00;;;;;;5008763;28;20431;-78
2024/03/12 06:35:52;;;;;;;8.30;5.32;;;12.30;88.10;;;;;;4993474;28;20025;-77
2024/03/12 06:38:20;;;;;;;8.00;4.57;;;12.20;88.00;;;;;;5010807;28;20358;-78
2024/03/12 06:40:47;;;;;;;8.60;5.40;;;12.20;87.90;;;;;;4993376;28;20033;-78
2024/03/12 06:43:14;;;;;;;9.48;5.40;;;12.20;88.00;;;;;;5010569;28;20022;-79
2024/03/12 06:45:40;;;;;;;8.38;5.32;;;12.30;88.00;;;;;;4993152;28;20552;-77
2024/03/12 06:48:06;;;;;;;8.38;5.07;;;12.20;88.00;;;;;;5010696;28;20113;-78
2024/03/12 06:50:32;;;;;;;8.60;5.28;;;12.20;88.00;;;;;;5010564;28;20026;-78
2024/03/12 06:52:59;;;;;;;10.30;5.60;;;12.20;88.00;;;;;;5010596;28;20026;-78
2024/03/12 06:55:24;;;;;;;10.63;5.43;;;12.30;88.00;;;;;;4992923;28;20026;-78
2024/03/12 06:58:02;;;;;;;8.68;5.68;;;12.50;88.10;;;;;;5010893;28;20414;-78
2024/03/12 07:00:37;;;;;;;8.90;5.55;;;12.20;87.90;;;;;;5010342;28;20030;-78
2024/03/12 07:03:06;;;;;;;9.25;5.75;;;12.20;87.90;;;;;;4992932;28;20018;-78
2024/03/12 07:05:43;;;;;;;8.88;5.50;;;12.30;87.90;;;;;;5010528;28;20038;-78
2024/03/12 07:08:10;;;;;;;9.70;4.97;;;12.30;88.00;;;;;;4992858;28;20029;-78
2024/03/12 07:10:40;;;;;;;8.95;5.32;;;12.20;87.90;;;;;;4992712;28;20030;-78
2024/03/12 07:13:09;;;;;;;8.90;5.68;;;12.30;88.00;;;;;;5010353;28;20180;-77
2024/03/12 07:15:38;;;;;;;9.32;5.82;;;12.30;88.00;;;;;;5010328;28;20022;-77
2024/03/12 07:18:06;;;;;;;9.25;6.25;;;12.30;88.00;;;;;;5010145;28;20026;-78
2024/03/12 07:20:34;;;;;;;9.60;5.95;;;12.30;88.00;;;;;;4992406;28;20371;-79
2024/03/12 07:23:00;;;;;;;8.80;5.57;;;12.20;87.90;;;;;;5010052;28;20026;-78
2024/03/12 07:25:26;;;;;;;9.50;6.22;;;12.20;88.00;;;;;;4992142;28;20076;-78
2024/03/12 07:27:55;;;;;;;10.63;6.25;;;12.30;88.00;;;;;;5010271;28;20033;-79
2024/03/12 07:30:21;;;;;;;9.15;5.78;;;12.20;88.00;;;;;;4992580;28;20458;-78
2024/03/12 07:32:47;;;;;;;9.80;5.93;;;12.30;88.10;;;;;;4992386;28;20117;-78
2024/03/12 07:35:13;;;;;;;17.73;7.25;;;12.20;88.00;;;;;;4995570;28;20026;-78
2024/03/12 07:37:41;;;;;;;9.77;6.40;;;12.30;88.10;;;;;;4995782;28;20022;-78
2024/03/12 07:40:15;;;;;;;9.02;5.82;;;12.30;88.20;;;;;;5013439;28;20033;-78
2024/03/12 07:42:42;;;;;;;8.82;5.70;;;12.30;88.10;;;;;;5013256;28;20032;-78
2024/03/12 07:45:09;;;;;;;9.10;5.55;;;12.20;88.10;;;;;;5013289;28;20030;-78
2024/03/12 07:47:35;;;;;;;9.48;6.00;;;12.30;88.10;;;;;;4995621;28;20137;-78
2024/03/12 07:50:05;;;;;;;8.88;5.95;;;12.30;88.10;;;;;;5011592;28;20121;-78
2024/03/12 07:52:30;;;;;;;9.18;5.95;;;12.20;88.60;;;;;;5012593;28;20038;-78
2024/03/12 07:54:57;;;;;;;9.70;6.10;;;12.20;88.10;;;;;;4994562;28;20084;-80
2024/03/12 07:57:24;;;;;;;8.85;5.80;;;12.20;88.10;;;;;;5012813;28;20056;-78
2024/03/12 07:59:50;;;;;;;9.30;5.70;;;12.20;88.10;;;;;;4995460;28;20141;-79
2024/03/12 08:02:19;;;;;;;9.70;6.25;;;12.30;88.10;;;;;;4994314;28;20062;-78
2024/03/12 08:04:44;;;;;;;8.50;5.57;;;12.20;88.10;;;;;;4995493;28;20025;-78
2024/03/12 08:07:14;;;;;;;8.88;5.88;;;12.30;88.10;;;;;;4995312;28;20407;-78
2024/03/12 08:09:42;;;;;;;9.35;6.20;;;12.20;88.10;;;;;;4995401;28;20017;-78
2024/03/12 08:12:07;;;;;;;9.55;6.15;;;12.30;88.20;;;;;;4995279;28;20090;-78
2024/03/12 08:14:35;;;;;;;9.35;6.35;;;12.30;88.10;;;;;;5012828;28;20136;-77
2024/03/12 08:17:05;;;;;;;8.75;5.80;;;12.30;88.10;;;;;;4995481;28;20464;-78
2024/03/12 08:19:31;;;;;;;9.20;5.97;;;12.20;88.10;;;;;;5012956;28;20057;-78
2024/03/12 08:21:57;;;;;;;10.90;7.13;;;12.20;88.00;;;;;;4995206;28;20505;-77
2024/03/12 08:24:25;;;;;;;9.50;6.60;;;12.30;88.10;;;;;;5012625;28;20033;-78
2024/03/12 08:26:51;;;;;;;9.93;6.35;;;12.20;88.10;;;;;;4995024;28;20034;-78
2024/03/12 08:29:16;;;;;;;9.85;6.38;;;12.20;88.10;;;;;;5012543;28;20048;-76
2024/03/12 08:31:42;;;;;;;10.18;7.22;;;12.20;88.10;;;;;;4995237;28;20397;-78
2024/03/12 08:34:15;;;;;;;10.05;6.40;;;12.30;88.20;;;;;;4994489;28;20466;-79
2024/03/12 08:36:43;;;;;;;10.07;6.72;;;12.30;88.20;;;;;;5012403;28;20026;-79
2024/03/12 08:39:12;;;;;;;9.35;5.72;;;12.30;88.20;;;;;;5012279;28;20095;-78
2024/03/12 08:41:41;;;;;;;9.25;6.20;;;12.30;88.70;;;;;;4994502;28;20030;-79
2024/03/12 08:44:08;;;;;;;10.60;7.18;;;12.30;88.10;;;;;;5012112;28;20032;-78
2024/03/12 08:46:34;;;;;;;9.18;5.82;;;12.30;88.20;;;;;;5010850;28;20093;-77
2024/03/12 08:49:00;;;;;;;8.82;6.10;;;12.30;88.20;;;;;;5012333;28;20025;-78
2024/03/12 08:51:26;;;;;;;9.63;6.00;;;12.20;88.10;;;;;;5012008;28;20479;-78
2024/03/12 08:53:52;;;;;;;9.43;6.32;;;12.30;88.20;;;;;;5012099;28;20050;-78
2024/03/12 08:56:19;;;;;;;9.82;6.63;;;12.30;88.60;;;;;;4994402;28;20084;-78
2024/03/12 08:58:45;;;;;;;10.02;6.90;;;12.30;88.10;;;;;;5012157;28;20032;-78
2024/03/12 09:01:11;;;;;;;10.05;6.22;;;12.30;88.20;;;;;;5011876;28;20026;-78
2024/03/12 09:03:36;;;;;;;10.15;6.50;;;12.30;88.20;;;;;;4994088;28;20030;-78
2024/03/12 09:06:02;;;;;;;9.80;6.57;;;12.30;88.20;;;;;;5012285;28;20030;-78
2024/03/12 09:08:29;;;;;;;10.82;6.88;;;12.30;88.20;;;;;;4994340;28;20107;-78
2024/03/12 09:10:55;;;;;;;10.50;6.57;;;12.30;88.20;;;;;;4994295;28;20022;-78
2024/03/12 09:13:21;;;;;;;9.02;6.10;;;12.30;88.20;;;;;;4993794;28;20018;-79
2024/03/12 09:15:50;;;;;;;9.70;6.47;;;12.20;88.10;;;;;;5011736;28;20100;-78
2024/03/12 09:18:19;;;;;;;10.23;6.78;;;12.20;88.20;;;;;;4994001;28;20037;-78
2024/03/12 09:20:45;;;;;;;10.23;6.78;;;12.30;88.20;;;;;;4993939;28;20022;-78
2024/03/12 09:23:10;;;;;;;9.57;6.50;;;12.30;88.20;;;;;;5011502;28;20036;-78
2024/03/12 09:25:36;;;;;;;10.43;6.30;;;12.30;88.20;;;;;;4993932;28;20048;-77
2024/03/12 09:28:04;;;;;;;9.45;6.15;;;12.30;88.20;;;;;;4994013;28;20026;-78
2024/03/12 09:30:30;;;;;;;9.38;6.20;;;12.20;88.20;;;;;;4993658;28;20442;-78
2024/03/12 09:32:56;;;;;;;10.25;6.68;;;12.20;88.20;;;;;;5011342;28;20018;-78
2024/03/12 09:35:22;;;;;;;9.82;6.07;;;12.30;88.20;;;;;;4993481;28;20072;-78
2024/03/12 09:37:48;;;;;;;9.27;5.93;;;12.30;88.20;;;;;;5011492;28;20382;-79
2024/03/12 09:40:14;;;;;;;9.70;6.38;;;12.20;88.20;;;;;;5011061;28;20034;-78
2024/03/12 09:42:44;;;;;;;9.68;6.18;;;12.20;88.20;;;;;;5011089;28;20026;-78
2024/03/12 09:45:11;;;;;;;9.48;6.30;;;12.30;88.30;;;;;;4993481;28;20104;-78
2024/03/12 09:47:36;;;;;;;9.80;6.22;;;12.20;88.20;;;;;;4993279;28;20037;-78
2024/03/12 09:50:10;;;;;;;9.85;6.28;;;12.30;88.30;;;;;;4993481;28;20075;-79
2024/03/12 09:52:36;;;;;;;9.80;6.53;;;12.30;88.30;;;;;;5010929;28;20026;-77
2024/03/12 09:55:02;;;;;;;9.23;5.97;;;12.30;88.20;;;;;;5011366;28;20097;-78
2024/03/12 09:57:28;;;;;;;9.52;6.45;;;12.20;88.20;;;;;;5010698;28;20032;-78
2024/03/12 09:59:53;;;;;;;9.20;5.90;;;12.20;88.20;;;;;;5011015;28;20032;-78
2024/03/12 10:02:20;;;;;;;10.32;6.18;;;12.30;88.30;;;;;;4993343;28;20030;-79
2024/03/12 10:04:48;;;;;;;8.73;5.68;;;12.30;88.30;;;;;;5010979;28;20018;-78
2024/03/12 10:07:16;;;;;;;10.07;6.85;;;12.30;88.30;;;;;;5010771;28;20548;-78
2024/03/12 10:09:42;;;;;;;9.82;6.30;;;12.30;88.30;;;;;;5011179;28;20422;-78
2024/03/12 10:12:09;;;;;;;10.02;6.60;;;12.20;88.20;;;;;;5010986;28;20032;-79
2024/03/12 10:14:34;;;;;;;9.07;6.18;;;12.30;88.30;;;;;;4993071;28;20118;-77
2024/03/12 10:17:14;;;;;;;10.15;6.40;;;12.30;88.30;;;;;;5011145;28;20108;-78
2024/03/12 10:19:41;;;;;;;9.90;6.35;;;12.20;88.20;;;;;;5010841;28;20053;-78
2024/03/12 10:22:09;;;;;;;9.15;6.10;;;12.30;88.30;;;;;;4992928;28;20396;-78
2024/03/12 10:24:36;;;;;;;9.95;6.72;;;12.30;88.30;;;;;;4993217;28;20570;-79
2024/03/12 10:27:05;;;;;;;9.95;6.35;;;12.30;88.30;;;;;;5010589;28;20026;-78
2024/03/12 10:29:38;;;;;;;9.18;6.38;;;12.30;88.30;;;;;;4992943;28;20029;-78
2024/03/12 10:32:21;;;;;;;9.50;6.47;;;12.30;88.30;;;;;;5010666;28;20040;-78
2024/03/12 10:34:48;;;;;;;9.82;6.40;;;12.30;88.30;;;;;;4992808;28;20109;-78
2024/03/12 10:37:34;;;;;;;9.50;6.20;;;12.30;88.30;;;;;;5010787;28;20026;-78
2024/03/12 10:40:16;;;;;;;9.35;6.20;;;12.30;88.30;;;;;;4992896;28;20056;-78
2024/03/12 10:43:00;;;;;;;9.68;6.22;;;12.30;88.30;;;;;;4992711;28;20026;-78
2024/03/12 10:45:29;;;;;;;8.70;5.75;;;12.30;88.30;;;;;;4992463;28;20041;-78
2024/03/12 10:47:59;;;;;;;9.85;6.38;;;12.30;88.30;;;;;;5010445;28;20029;-78
2024/03/12 10:50:25;;;;;;;9.23;6.15;;;12.20;88.30;;;;;;4992846;28;20076;-78
2024/03/12 10:52:55;;;;;;;8.45;5.78;;;12.30;88.30;;;;;;4992640;28;20033;-77
2024/03/12 10:55:21;;;;;;;9.40;5.90;;;12.20;88.30;;;;;;4993016;28;20502;-78
2024/03/12 10:57:49;;;;;;;8.38;5.68;;;12.30;88.30;;;;;;5010405;28;20033;-77
2024/03/12 11:00:20;;;;;;;8.90;5.88;;;12.30;88.30;;;;;;4992716;28;20126;-78
2024/03/12 11:02:47;;;;;;;9.40;5.97;;;12.30;88.30;;;;;;5010389;28;20026;-78
2024/03/12 11:05:14;;;;;;;9.38;6.07;;;12.30;88.30;;;;;;4992728;28;20033;-78
2024/03/12 11:07:40;;;;;;;9.15;5.93;;;12.30;88.30;;;;;;4992904;28;20026;-78
2024/03/12 11:10:09;;;;;;;8.65;5.45;;;12.30;88.30;;;;;;4995733;28;20557;-78
2024/03/12 11:12:35;;;;;;;8.80;5.63;;;12.30;88.30;;;;;;5013889;28;20382;-79
2024/03/12 11:15:01;;;;;;;8.48;5.35;;;12.30;88.30;;;;;;4996551;28;20057;-78
2024/03/12 11:17:27;;;;;;;9.43;5.90;;;12.30;88.30;;;;;;4996224;28;20033;-78
2024/03/12 11:19:53;;;;;;;8.40;5.72;;;12.30;88.30;;;;;;4996225;28;20030;-78
2024/03/12 11:22:20;;;;;;;9.20;5.93;;;12.30;88.30;;;;;;5013798;28;20022;-78
2024/03/12 11:24:48;;;;;;;8.90;5.78;;;12.30;88.30;;;;;;4996175;28;20397;-77
2024/03/12 11:27:21;;;;;;;9.25;6.03;;;12.30;88.30;;;;;;5013817;28;20033;-78
2024/03/12 11:30:08;;;;;;;8.63;5.50;;;12.20;88.30;;;;;;5013844;28;20487;-77
2024/03/12 11:32:34;;;;;;;8.38;5.55;;;12.30;88.30;;;;;;4996126;28;20036;-78
2024/03/12 11:35:16;;;;;;;9.07;5.75;;;12.30;88.40;;;;;;5014038;28;20032;-78
2024/03/12 11:37:59;;;;;;;8.45;5.43;;;12.30;88.30;;;;;;5013772;28;20054;-78
2024/03/12 11:40:38;;;;;;;8.43;5.15;;;12.30;88.30;;;;;;4995971;28;20034;-78
2024/03/12 11:43:04;;;;;;;8.85;5.80;;;12.30;88.40;;;;;;5013625;28;20021;-78
2024/03/12 11:45:40;;;;;;;8.82;5.68;;;12.30;88.40;;;;;;5013307;28;20025;-78
2024/03/12 11:48:09;;;;;;;9.30;6.05;;;12.30;88.30;;;;;;4996012;28;20081;-78
2024/03/12 11:50:39;;;;;;;8.48;5.57;;;12.30;88.30;;;;;;4996426;28;20037;-78
2024/03/12 11:53:18;;;;;;;8.90;5.63;;;12.30;88.30;;;;;;5013370;28;20562;-78
2024/03/12 11:56:06;;;;;;;8.40;5.43;;;12.20;88.30;;;;;;5013796;28;20028;-78
2024/03/12 11:58:38;;;;;;;9.63;6.05;;;12.30;88.30;;;;;;5013774;28;20026;-78
2024/03/12 12:01:04;;;;;;;8.88;5.93;;;12.20;88.30;;;;;;4995624;28;20502;-77
2024/03/12 12:03:31;;;;;;;9.15;5.70;;;12.30;88.40;;;;;;5012902;28;20033;-78
2024/03/12 12:05:56;;;;;;;8.77;5.70;;;12.30;88.40;;;;;;4995456;28;20026;-79
2024/03/12 12:08:24;;;;;;;8.60;5.45;;;12.30;88.40;;;;;;5012785;28;20022;-78
2024/03/12 12:10:57;;;;;;;9.38;5.93;;;12.30;88.40;;;;;;4995376;28;20113;-78
2024/03/12 12:13:23;;;;;;;8.88;5.57;;;12.30;88.40;;;;;;4995077;28;20248;-78
2024/03/12 12:16:05;;;;;;;8.38;5.43;;;12.30;88.40;;;;;;4995360;28;20030;-78
2024/03/12 12:18:35;;;;;;;8.10;5.50;;;12.30;88.40;;;;;;4995050;28;20026;-78
2024/03/12 12:21:10;;;;;;;7.93;5.45;;;12.30;88.40;;;;;;5012699;28;20022;-78
2024/03/12 12:23:37;;;;;;;8.65;5.47;;;12.30;88.40;;;;;;4994885;28;20372;-79
2024/03/12 12:26:06;;;;;;;8.35;5.22;;;12.30;88.40;;;;;;4995151;28;20084;-78
2024/03/12 12:28:35;;;;;;;7.80;5.25;;;12.30;88.40;;;;;;5012600;28;20105;-79
2024/03/12 12:31:05;;;;;;;9.30;5.72;;;12.30;88.40;;;;;;4994887;28;20022;-78
2024/03/12 12:33:38;;;;;;;8.88;5.50;;;12.30;88.40;;;;;;4994669;28;20025;-78
2024/03/12 12:36:08;;;;;;;8.45;5.22;;;12.30;88.40;;;;;;4994935;28;20030;-78
2024/03/12 12:38:36;;;;;;;8.50;5.50;;;12.30;88.40;;;;;;4994656;28;20046;-78
2024/03/12 12:41:02;;;;;;;8.20;5.25;;;12.30;88.40;;;;;;4994881;28;20515;-79
2024/03/12 12:43:32;;;;;;;8.13;5.07;;;12.30;88.40;;;;;;5012065;28;20081;-78
2024/03/12 12:46:05;;;;;;;9.38;5.93;;;12.30;88.40;;;;;;4994510;28;20033;-78
2024/03/12 12:48:34;;;;;;;8.93;5.72;;;12.30;88.40;;;;;;5012510;28;20277;-78
2024/03/12 12:51:03;;;;;;;7.68;4.82;;;12.30;88.40;;;;;;4994754;28;20025;-78
2024/03/12 12:53:28;;;;;;;8.70;5.40;;;12.30;88.50;;;;;;4994621;28;20044;-78